createdAt,value
2023-04-17T00:01:09.414Z,8.60
2023-04-17T00:03:36.305Z,9.15
2023-04-17T00:06:03.527Z,8.57
2023-04-17T00:08:30.959Z,8.63
2023-04-17T00:11:07.167Z,7.97
2023-04-17T00:13:35.655Z,9.03
2023-04-17T00:16:02.864Z,9.43
2023-04-17T00:18:29.648Z,8.73
2023-04-17T00:20:56.550Z,8.73
2023-04-17T00:23:23.218Z,8.60
2023-04-17T00:25:49.875Z,7.73
2023-04-17T00:28:16.389Z,9.02
2023-04-17T00:30:42.905Z,8.43
2023-04-17T00:33:09.501Z,8.93
2023-04-17T00:35:36.043Z,9.68
2023-04-17T00:38:02.654Z,8.90
2023-04-17T00:40:29.196Z,9.10
2023-04-17T00:43:03.548Z,8.73
2023-04-17T00:45:31.035Z,9.15
2023-04-17T00:47:59.311Z,8.20
2023-04-17T00:50:29.623Z,9.13
2023-04-17T00:52:56.219Z,8.77
2023-04-17T00:55:23.144Z,8.80
2023-04-17T00:57:50.453Z,8.60
2023-04-17T01:00:18.198Z,9.00
2023-04-17T01:02:45.936Z,9.03
2023-04-17T01:05:12.890Z,9.20
2023-04-17T01:07:41.168Z,8.85
2023-04-17T01:10:08.365Z,8.80
2023-04-17T01:12:35.281Z,8.57
2023-04-17T01:15:02.272Z,8.53
2023-04-17T01:17:29.000Z,9.13
2023-04-17T01:19:57.097Z,8.85
2023-04-17T01:22:23.733Z,8.48
2023-04-17T01:24:50.855Z,8.98
2023-04-17T01:27:17.679Z,8.60
2023-04-17T01:29:45.987Z,8.95
2023-04-17T01:32:12.846Z,9.30
2023-04-17T01:34:39.415Z,8.90
2023-04-17T01:37:06.975Z,9.15
2023-04-17T01:39:33.851Z,9.10
2023-04-17T01:42:00.592Z,8.23
2023-04-17T01:44:28.338Z,9.43
2023-04-17T01:46:54.990Z,9.50
2023-04-17T01:49:21.866Z,9.52
2023-04-17T01:51:48.427Z,9.40
2023-04-17T01:54:15.573Z,9.43
2023-04-17T01:56:42.455Z,9.60
2023-04-17T01:59:09.851Z,9.50
2023-04-17T02:01:37.399Z,9.48
2023-04-17T02:04:04.259Z,9.77
2023-04-17T02:06:31.968Z,9.40
2023-04-17T02:08:59.413Z,9.77
2023-04-17T02:11:26.354Z,9.77
2023-04-17T02:13:53.425Z,9.18
2023-04-17T02:16:24.076Z,9.00
2023-04-17T02:18:51.672Z,8.85
2023-04-17T02:21:18.682Z,9.23
2023-04-17T02:23:45.288Z,10.20
2023-04-17T02:26:12.339Z,9.07
2023-04-17T02:28:39.476Z,9.77
2023-04-17T02:31:09.432Z,9.10
2023-04-17T02:33:36.723Z,9.48
2023-04-17T02:36:05.419Z,9.05
2023-04-17T02:38:32.449Z,9.00
2023-04-17T02:40:59.057Z,9.47
2023-04-17T02:43:25.625Z,9.30
2023-04-17T02:45:52.143Z,9.38
2023-04-17T02:48:18.694Z,8.93
2023-04-17T02:50:45.461Z,10.18
2023-04-17T02:53:12.444Z,9.07
2023-04-17T02:55:38.969Z,9.75
2023-04-17T02:58:05.504Z,9.25
2023-04-17T03:00:32.107Z,10.20
2023-04-17T03:02:58.948Z,9.27
2023-04-17T03:05:25.845Z,10.17
2023-04-17T03:07:52.424Z,10.15
2023-04-17T03:10:18.974Z,10.00
2023-04-17T03:12:45.727Z,10.75
2023-04-17T03:15:12.309Z,10.10
2023-04-17T03:17:39.149Z,9.93
2023-04-17T03:20:07.510Z,10.30
2023-04-17T03:22:34.175Z,11.20
2023-04-17T03:25:00.763Z,10.48
2023-04-17T03:27:27.309Z,10.77
2023-04-17T03:29:56.203Z,10.70
2023-04-17T03:32:22.746Z,10.23
2023-04-17T03:34:49.292Z,10.40
2023-04-17T03:37:15.846Z,10.60
2023-04-17T03:39:42.406Z,10.55
2023-04-17T03:42:11.992Z,10.10
2023-04-17T03:44:38.528Z,10.85
2023-04-17T03:47:05.212Z,11.05
2023-04-17T03:49:31.767Z,11.52
2023-04-17T03:51:58.358Z,10.77
2023-04-17T03:54:24.988Z,10.90
2023-04-17T03:56:51.587Z,11.18
2023-04-17T03:59:18.138Z,11.63
2023-04-17T04:01:46.866Z,11.27
2023-04-17T04:04:13.761Z,11.27
2023-04-17T04:06:42.643Z,11.43
2023-04-17T04:09:09.227Z,11.30
2023-04-17T04:11:35.994Z,12.50
2023-04-17T04:14:02.555Z,11.75
2023-04-17T04:16:29.205Z,12.13
2023-04-17T04:18:56.060Z,12.03
2023-04-17T04:21:23.689Z,11.73
2023-04-17T04:23:51.009Z,11.45
2023-04-17T04:26:17.583Z,12.13
2023-04-17T04:28:44.323Z,12.90
2023-04-17T04:31:11.340Z,13.47
2023-04-17T04:33:37.895Z,14.95
2023-04-17T04:36:04.681Z,19.98
2023-04-17T04:38:32.440Z,22.20
2023-04-17T04:41:06.112Z,20.08
2023-04-17T04:43:34.610Z,18.70
2023-04-17T04:46:01.255Z,15.77
2023-04-17T04:48:28.832Z,16.13
2023-04-17T04:50:58.220Z,15.68
2023-04-17T04:53:24.839Z,16.58
2023-04-17T04:55:51.404Z,15.60
2023-04-17T04:58:17.968Z,14.25
2023-04-17T05:00:44.651Z,14.10
2023-04-17T05:03:12.713Z,13.68
2023-04-17T05:05:41.080Z,13.98
2023-04-17T05:08:07.858Z,13.80
2023-04-17T05:10:35.080Z,13.48
2023-04-17T05:13:01.954Z,13.90
2023-04-17T05:15:28.508Z,13.70
2023-04-17T05:17:55.077Z,14.07
2023-04-17T05:20:21.843Z,12.97
2023-04-17T05:22:49.433Z,13.02
2023-04-17T05:25:19.705Z,13.95
2023-04-17T05:27:46.653Z,13.30
2023-04-17T05:30:13.880Z,12.65
2023-04-17T05:32:41.733Z,14.57
2023-04-17T05:35:08.533Z,13.77
2023-04-17T05:37:35.038Z,13.93
2023-04-17T05:40:02.108Z,14.02
2023-04-17T05:42:28.750Z,13.20
2023-04-17T05:44:55.311Z,13.10
2023-04-17T05:47:21.994Z,13.75
2023-04-17T05:49:51.137Z,13.27
2023-04-17T05:52:17.897Z,14.10
2023-04-17T05:54:44.602Z,14.05
2023-04-17T05:57:11.247Z,13.07
2023-04-17T05:59:37.788Z,13.70
2023-04-17T06:02:04.776Z,13.75
2023-04-17T06:04:32.031Z,13.68
2023-04-17T06:06:59.002Z,14.07
2023-04-17T06:09:26.186Z,13.63
2023-04-17T06:11:52.862Z,12.70
2023-04-17T06:14:19.414Z,13.65
2023-04-17T06:16:46.113Z,13.50
2023-04-17T06:19:12.786Z,12.98
2023-04-17T06:21:39.417Z,13.13
2023-04-17T06:24:06.591Z,12.40
2023-04-17T06:26:33.104Z,13.23
2023-04-17T06:29:01.128Z,13.48
2023-04-17T06:31:27.675Z,12.85
2023-04-17T06:33:54.230Z,13.43
2023-04-17T06:36:20.711Z,13.43
2023-04-17T06:38:47.247Z,13.75
2023-04-17T06:41:14.443Z,13.23
2023-04-17T06:43:41.153Z,12.80
2023-04-17T06:46:07.808Z,12.47
2023-04-17T06:48:34.379Z,12.38
2023-04-17T06:51:01.085Z,12.98
2023-04-17T06:53:27.601Z,12.45
2023-04-17T06:55:54.461Z,12.05
2023-04-17T06:58:21.218Z,11.90
2023-04-17T07:00:47.807Z,11.85
2023-04-17T07:03:14.963Z,11.98
2023-04-17T07:05:43.966Z,12.18
2023-04-17T07:08:10.531Z,11.65
2023-04-17T07:10:37.180Z,11.35
2023-04-17T07:13:03.809Z,11.82
2023-04-17T07:15:31.271Z,12.00
2023-04-17T07:17:57.984Z,11.30
2023-04-17T07:20:24.809Z,11.65
2023-04-17T07:22:51.356Z,11.50
2023-04-17T07:25:18.013Z,10.73
2023-04-17T07:27:44.542Z,10.85
2023-04-17T07:30:11.338Z,11.02
2023-04-17T07:32:37.958Z,11.00
2023-04-17T07:35:04.994Z,11.52
2023-04-17T07:37:31.606Z,10.95
2023-04-17T07:39:58.182Z,10.70
2023-04-17T07:42:25.098Z,11.00
2023-04-17T07:44:52.174Z,10.65
2023-04-17T07:47:19.055Z,10.27
2023-04-17T07:49:48.912Z,11.00
2023-04-17T07:52:17.803Z,11.65
2023-04-17T07:54:44.833Z,10.93
2023-04-17T07:57:11.384Z,10.38
2023-04-17T07:59:37.984Z,10.43
2023-04-17T08:02:05.659Z,10.32
2023-04-17T08:04:33.264Z,10.07
2023-04-17T08:07:00.446Z,9.52
2023-04-17T08:09:27.148Z,9.27
2023-04-17T08:11:57.628Z,10.48
2023-04-17T08:14:25.614Z,10.48
2023-04-17T08:16:52.677Z,9.57
2023-04-17T08:19:19.369Z,9.48
2023-04-17T08:21:50.016Z,9.68
2023-04-17T08:24:19.220Z,10.15
2023-04-17T08:26:47.776Z,10.20
2023-04-17T08:29:14.986Z,9.60
2023-04-17T08:31:43.003Z,9.38
2023-04-17T08:34:14.561Z,9.40
2023-04-17T08:36:42.959Z,8.73
2023-04-17T08:39:12.194Z,9.30
2023-04-17T08:42:02.991Z,9.73
2023-04-17T08:44:30.517Z,9.23
2023-04-17T08:47:02.425Z,9.35
2023-04-17T08:49:29.536Z,9.73
2023-04-17T08:51:56.267Z,9.38
2023-04-17T08:54:22.902Z,9.45
2023-04-17T08:56:49.528Z,9.05
2023-04-17T08:59:17.845Z,8.80
2023-04-17T09:02:04.262Z,9.93
2023-04-17T09:04:49.143Z,9.63
2023-04-17T09:07:16.580Z,9.18
2023-04-17T09:10:01.230Z,9.77
2023-04-17T09:12:27.821Z,8.55
2023-04-17T09:14:54.485Z,9.13
2023-04-17T09:17:21.518Z,9.95
2023-04-17T09:20:09.679Z,9.20
2023-04-17T09:22:38.169Z,8.32
2023-04-17T09:25:14.729Z,8.63
2023-04-17T09:27:41.285Z,9.52
2023-04-17T09:30:08.459Z,8.93
2023-04-17T09:32:35.329Z,9.18
2023-04-17T09:35:04.335Z,9.73
2023-04-17T09:37:51.309Z,9.25
2023-04-17T09:40:19.575Z,8.80
2023-04-17T09:43:02.097Z,8.88
2023-04-17T09:45:35.795Z,8.85
2023-04-17T09:48:06.298Z,9.00
2023-04-17T09:50:35.852Z,9.20
2023-04-17T09:53:04.463Z,8.63
2023-04-17T09:55:31.480Z,8.48
2023-04-17T09:58:02.701Z,9.32
2023-04-17T10:00:29.957Z,9.05
2023-04-17T10:02:58.992Z,8.23
2023-04-17T10:05:28.778Z,7.97
2023-04-17T10:07:56.399Z,8.02
2023-04-17T10:10:32.394Z,8.48
2023-04-17T10:13:08.260Z,8.48
2023-04-17T10:15:35.505Z,8.30
2023-04-17T10:18:22.670Z,8.35
2023-04-17T10:20:50.629Z,8.32
2023-04-17T10:23:46.645Z,8.50
2023-04-17T10:26:25.130Z,8.60
2023-04-17T10:28:53.219Z,8.68
2023-04-17T10:31:21.032Z,8.52
2023-04-17T10:33:52.577Z,7.88
2023-04-17T10:36:37.920Z,9.10
2023-04-17T10:39:15.126Z,7.93
2023-04-17T10:42:04.900Z,8.15
2023-04-17T10:44:39.008Z,7.65
2023-04-17T10:47:15.361Z,7.82
2023-04-17T10:49:54.366Z,9.07
2023-04-17T10:52:33.348Z,8.73
2023-04-17T10:55:07.939Z,8.32
2023-04-17T10:57:58.095Z,8.68
2023-04-17T11:00:31.544Z,8.45
2023-04-17T11:02:59.370Z,9.15
2023-04-17T11:05:26.606Z,8.55
2023-04-17T11:07:53.242Z,8.38
2023-04-17T11:10:21.202Z,9.02
2023-04-17T11:12:49.791Z,8.90
2023-04-17T11:15:16.676Z,9.02
2023-04-17T11:17:48.048Z,8.50
2023-04-17T11:20:17.409Z,8.88
2023-04-17T11:22:44.859Z,8.65
2023-04-17T11:25:22.722Z,8.93
2023-04-17T11:27:57.372Z,9.07
2023-04-17T11:30:34.566Z,9.38
2023-04-17T11:33:03.910Z,8.70
2023-04-17T11:35:34.914Z,7.85
2023-04-17T11:38:21.650Z,8.98
2023-04-17T11:40:54.077Z,8.23
2023-04-17T11:43:22.303Z,7.60
2023-04-17T11:45:54.778Z,9.27
2023-04-17T11:48:25.016Z,8.07
2023-04-17T11:50:56.363Z,8.80
2023-04-17T11:53:23.022Z,8.65
2023-04-17T11:56:16.790Z,9.07
2023-04-17T11:58:53.873Z,8.80
2023-04-17T12:01:24.758Z,8.05
2023-04-17T12:03:53.492Z,9.00
2023-04-17T12:06:20.130Z,8.57
2023-04-17T12:08:48.002Z,8.95
2023-04-17T12:11:35.866Z,8.13
2023-04-17T12:14:05.116Z,8.57
2023-04-17T12:16:31.719Z,8.70
2023-04-17T12:18:58.536Z,8.63
2023-04-17T12:21:25.351Z,8.95
2023-04-17T12:23:52.136Z,9.30
2023-04-17T12:26:18.941Z,9.13
2023-04-17T12:28:45.698Z,9.45
2023-04-17T12:31:12.777Z,9.63
2023-04-17T12:33:39.378Z,10.18
2023-04-17T12:36:06.799Z,10.25
2023-04-17T12:38:33.739Z,9.77
2023-04-17T12:41:00.342Z,9.95
2023-04-17T12:43:27.415Z,9.65
2023-04-17T12:45:54.020Z,10.10
2023-04-17T12:48:20.673Z,10.23
2023-04-17T12:50:47.209Z,9.95
2023-04-17T12:53:14.819Z,10.02
2023-04-17T12:55:43.719Z,10.25
2023-04-17T12:58:12.162Z,9.93
2023-04-17T13:00:40.668Z,10.50
2023-04-17T13:03:07.590Z,8.90
2023-04-17T13:05:34.842Z,8.50
2023-04-17T13:08:01.696Z,9.15
2023-04-17T13:10:28.528Z,8.48
2023-04-17T13:12:55.493Z,9.80
2023-04-17T13:15:22.002Z,9.15
2023-04-17T13:17:48.557Z,9.13
2023-04-17T13:20:15.564Z,9.10
2023-04-17T13:22:42.226Z,9.55
2023-04-17T13:25:09.537Z,9.52
2023-04-17T13:27:37.211Z,9.43
2023-04-17T13:30:03.951Z,9.82
2023-04-17T13:32:30.524Z,9.90
2023-04-17T13:34:58.754Z,9.50
2023-04-17T13:37:25.651Z,9.88
2023-04-17T13:39:52.215Z,9.63
2023-04-17T13:42:18.986Z,9.25
2023-04-17T13:44:45.601Z,8.70
2023-04-17T13:47:13.852Z,9.20
2023-04-17T13:49:40.489Z,9.75
2023-04-17T13:52:07.419Z,8.77
2023-04-17T13:54:33.956Z,8.30
2023-04-17T13:57:01.129Z,9.20
2023-04-17T13:59:27.865Z,8.65
2023-04-17T14:01:54.779Z,8.38
2023-04-17T14:04:21.610Z,8.13
2023-04-17T14:06:50.737Z,8.20
2023-04-17T14:09:17.576Z,8.43
2023-04-17T14:11:44.180Z,8.48
2023-04-17T14:14:12.563Z,9.10
2023-04-17T14:16:40.643Z,9.00
2023-04-17T14:19:14.177Z,8.90
2023-04-17T14:21:41.702Z,8.20
2023-04-17T14:24:08.777Z,8.70
2023-04-17T14:26:35.865Z,8.50
2023-04-17T14:29:02.451Z,8.35
2023-04-17T14:31:29.060Z,8.98
2023-04-17T14:33:55.680Z,8.48
2023-04-17T14:36:22.191Z,9.07
2023-04-17T14:38:51.090Z,8.05
2023-04-17T14:41:18.080Z,7.90
2023-04-17T14:43:44.859Z,8.38
2023-04-17T14:46:11.726Z,8.10
2023-04-17T14:48:47.999Z,8.50
2023-04-17T14:53:48.696Z,8.80
2023-04-17T14:56:15.865Z,7.60
2023-04-17T14:58:43.187Z,7.63
2023-04-17T15:01:09.780Z,7.30
2023-04-17T15:03:36.506Z,6.72
2023-04-17T15:06:03.441Z,6.95
2023-04-17T15:08:32.609Z,6.53
2023-04-17T15:10:59.156Z,6.65
2023-04-17T15:13:25.718Z,6.40
2023-04-17T15:15:52.267Z,6.35
2023-04-17T15:18:18.832Z,6.18
2023-04-17T15:20:46.278Z,6.13
2023-04-17T15:23:13.038Z,6.43
2023-04-17T15:25:39.824Z,6.13
2023-04-17T15:28:06.935Z,6.68
2023-04-17T15:30:33.438Z,7.00
2023-04-17T15:33:00.104Z,5.80
2023-04-17T15:35:26.665Z,6.25
2023-04-17T15:37:53.288Z,6.45
2023-04-17T15:40:19.886Z,6.07
2023-04-17T15:42:46.599Z,6.28
2023-04-17T15:45:13.194Z,6.35
2023-04-17T15:47:40.005Z,6.07
2023-04-17T15:50:08.056Z,6.60
2023-04-17T15:52:34.728Z,6.85
2023-04-17T15:55:01.265Z,6.70
2023-04-17T15:57:27.814Z,5.75
2023-04-17T15:59:54.332Z,6.20
2023-04-17T16:02:21.259Z,7.03
2023-04-17T16:04:48.007Z,6.93
2023-04-17T16:07:15.557Z,6.83
2023-04-17T16:09:44.938Z,6.70
2023-04-17T16:12:11.489Z,6.60
2023-04-17T16:14:38.488Z,6.20
2023-04-17T16:17:05.522Z,7.82
2023-04-17T16:19:32.469Z,7.30
2023-04-17T16:21:59.446Z,7.47
2023-04-17T16:24:26.236Z,7.47
2023-04-17T16:26:57.286Z,7.38
2023-04-17T16:29:25.147Z,7.00
2023-04-17T16:31:53.427Z,8.20
2023-04-17T16:34:20.807Z,7.85
2023-04-17T16:36:47.993Z,8.13
2023-04-17T16:39:14.728Z,8.18
2023-04-17T16:41:41.819Z,8.40
2023-04-17T16:44:08.429Z,8.98
2023-04-17T16:46:58.705Z,8.52
2023-04-17T16:49:22.049Z,8.23
2023-04-17T16:51:48.569Z,7.60
2023-04-17T16:54:15.271Z,7.63
2023-04-17T16:56:42.693Z,8.20
2023-04-17T16:59:09.320Z,7.72
2023-04-17T17:01:35.895Z,7.60
2023-04-17T17:04:02.646Z,7.40
2023-04-17T17:06:29.694Z,7.05
2023-04-17T17:08:56.280Z,7.97
2023-04-17T17:11:23.294Z,7.85
2023-04-17T17:13:50.679Z,7.50
2023-04-17T17:16:19.467Z,8.00
2023-04-17T17:18:47.414Z,7.97
2023-04-17T17:21:14.864Z,7.90
2023-04-17T17:23:41.837Z,7.75
2023-04-17T17:26:08.642Z,8.48
2023-04-17T17:28:35.445Z,8.20
2023-04-17T17:31:04.243Z,8.48
2023-04-17T17:33:32.217Z,8.47
2023-04-17T17:35:59.689Z,8.68
2023-04-17T17:38:28.641Z,8.38
2023-04-17T17:40:58.331Z,8.32
2023-04-17T17:43:24.934Z,8.52
2023-04-17T17:45:52.522Z,9.30
2023-04-17T17:48:20.446Z,9.57
2023-04-17T17:50:47.472Z,8.82
2023-04-17T17:53:14.165Z,9.10
2023-04-17T17:55:40.797Z,9.88
2023-04-17T17:58:08.888Z,9.57
2023-04-17T18:00:35.714Z,9.52
2023-04-17T18:03:02.499Z,9.80
2023-04-17T18:05:29.167Z,9.77
2023-04-17T18:07:55.740Z,10.45
2023-04-17T18:10:22.579Z,10.15
2023-04-17T18:12:49.748Z,10.10
2023-04-17T18:15:16.643Z,10.57
2023-04-17T18:17:43.317Z,10.32
2023-04-17T18:20:10.441Z,11.82
2023-04-17T18:22:38.348Z,11.65
2023-04-17T18:25:06.926Z,12.27
2023-04-17T18:27:36.247Z,13.27
2023-04-17T18:30:09.014Z,12.43
2023-04-17T18:32:36.272Z,11.93
2023-04-17T18:35:03.945Z,11.25
2023-04-17T18:37:30.509Z,11.77
2023-04-17T18:39:57.018Z,10.50
2023-04-17T18:42:23.598Z,11.55
2023-04-17T18:44:50.157Z,10.73
2023-04-17T18:47:16.971Z,10.45
2023-04-17T18:49:43.760Z,10.10
2023-04-17T18:52:10.364Z,10.63
2023-04-17T18:54:36.833Z,10.35
2023-04-17T18:57:03.570Z,10.43
2023-04-17T18:59:31.896Z,12.60
2023-04-17T19:05:47.553Z,11.77
2023-04-17T19:08:14.872Z,10.75
2023-04-17T19:10:42.732Z,10.25
2023-04-17T19:13:09.846Z,10.30
2023-04-17T19:15:36.652Z,11.10
2023-04-17T19:18:03.484Z,10.48
2023-04-17T19:20:30.085Z,10.52
2023-04-17T19:23:04.098Z,10.10
2023-04-17T19:25:30.913Z,10.57
2023-04-17T19:28:01.391Z,10.40
2023-04-17T19:30:28.202Z,10.50
2023-04-17T19:32:59.518Z,10.38
2023-04-17T19:35:26.388Z,10.30
2023-04-17T19:37:52.928Z,11.05
2023-04-17T19:40:25.181Z,10.57
2023-04-17T19:42:52.781Z,10.70
2023-04-17T19:45:20.788Z,10.40
2023-04-17T19:47:54.578Z,10.60
2023-04-17T19:50:27.085Z,10.40
2023-04-17T19:52:54.990Z,9.65
2023-04-17T19:55:21.757Z,9.80
2023-04-17T19:57:50.741Z,10.90
2023-04-17T20:00:17.702Z,11.07
2023-04-17T20:02:44.402Z,11.13
2023-04-17T20:05:10.971Z,10.30
2023-04-17T20:07:37.508Z,11.10
2023-04-17T20:10:05.009Z,10.35
2023-04-17T20:12:31.655Z,10.23
2023-04-17T20:14:58.160Z,10.43
2023-04-17T20:17:24.790Z,10.15
2023-04-17T20:19:51.307Z,10.48
2023-04-17T20:22:18.015Z,11.32
2023-04-17T20:24:44.518Z,10.55
2023-04-17T20:27:11.092Z,10.87
2023-04-17T20:29:38.018Z,10.65
2023-04-17T20:32:04.592Z,10.95
2023-04-17T20:34:34.947Z,10.65
2023-04-17T20:37:01.884Z,10.10
2023-04-17T20:39:28.996Z,10.00
2023-04-17T20:41:56.339Z,10.18
2023-04-17T20:44:22.827Z,10.32
2023-04-17T20:46:49.424Z,10.30
2023-04-17T20:49:16.055Z,10.18
2023-04-17T20:51:42.658Z,9.90
2023-04-17T20:54:09.162Z,10.52
2023-04-17T20:56:35.810Z,10.45
2023-04-17T20:59:02.294Z,10.23
2023-04-17T21:01:28.824Z,10.68
2023-04-17T21:03:56.264Z,10.37
2023-04-17T21:06:22.932Z,9.82
2023-04-17T21:08:49.542Z,10.52
2023-04-17T21:11:16.607Z,10.45
2023-04-17T21:13:43.140Z,9.65
2023-04-17T21:16:11.274Z,10.50
2023-04-17T21:18:38.009Z,10.90
2023-04-17T21:21:04.850Z,10.30
2023-04-17T21:23:31.660Z,9.88
2023-04-17T21:25:58.156Z,10.40
2023-04-17T21:28:24.719Z,10.18
2023-04-17T21:30:51.204Z,9.70
2023-04-17T21:33:18.020Z,9.77
2023-04-17T21:35:44.788Z,10.57
2023-04-17T21:38:11.981Z,10.00
2023-04-17T21:40:50.141Z,10.25
2023-04-17T21:43:17.443Z,9.68
2023-04-17T21:45:44.026Z,10.35
2023-04-17T21:48:10.582Z,9.55
2023-04-17T21:50:37.179Z,10.63
2023-04-17T21:53:03.803Z,10.23
2023-04-17T21:55:30.441Z,9.88
2023-04-17T21:57:56.982Z,10.30
2023-04-17T22:00:23.589Z,9.80
2023-04-17T22:02:50.198Z,10.15
2023-04-17T22:05:16.850Z,9.50
2023-04-17T22:07:51.731Z,9.77
2023-04-17T22:10:21.929Z,10.15
2023-04-17T22:12:48.440Z,10.05
2023-04-17T22:15:15.120Z,9.75
2023-04-17T22:17:41.661Z,9.93
2023-04-17T22:20:08.892Z,9.80
2023-04-17T22:22:35.489Z,9.60
2023-04-17T22:25:02.177Z,10.48
2023-04-17T22:27:28.963Z,10.05
2023-04-17T22:29:55.618Z,9.90
2023-04-17T22:32:22.137Z,9.98
2023-04-17T22:34:49.622Z,10.35
2023-04-17T22:37:16.309Z,9.27
2023-04-17T22:39:42.847Z,9.63
2023-04-17T22:42:10.618Z,9.93
2023-04-17T22:44:37.634Z,9.95
2023-04-17T22:47:04.436Z,9.98
2023-04-17T22:49:32.092Z,9.95
2023-04-17T22:51:58.614Z,9.90
2023-04-17T22:54:25.179Z,10.17
2023-04-17T22:56:51.784Z,10.40
2023-04-17T22:59:18.250Z,10.35
2023-04-17T23:01:44.802Z,9.75
2023-04-17T23:04:11.477Z,10.32
2023-04-17T23:06:38.294Z,10.23
2023-04-17T23:09:04.975Z,9.48
2023-04-17T23:11:32.752Z,9.65
2023-04-17T23:14:00.449Z,10.45
2023-04-17T23:16:27.886Z,9.57
2023-04-17T23:18:54.649Z,10.03
2023-04-17T23:21:21.242Z,9.60
2023-04-17T23:23:48.138Z,9.52
2023-04-17T23:26:15.439Z,10.38
2023-04-17T23:28:42.337Z,9.25
2023-04-17T23:31:08.923Z,9.90
2023-04-17T23:33:35.727Z,9.98
2023-04-17T23:36:02.425Z,10.07
2023-04-17T23:38:29.176Z,10.60
2023-04-17T23:40:55.706Z,10.52
2023-04-17T23:43:22.197Z,10.20
2023-04-17T23:45:48.946Z,10.10
2023-04-17T23:48:15.682Z,10.68
2023-04-17T23:50:42.375Z,10.70
2023-04-17T23:53:08.873Z,10.68
2023-04-17T23:55:35.510Z,11.17
2023-04-17T23:58:02.257Z,10.52
